首页
METAR-TAF:

METAR-TAF

机场 :

海參崴國際機場

海參崴, 俄罗斯

纬度: 43-07N, 经度: 131-56E, 海拔: 184米

当前天气观测

该预报发布于36分钟前的17:30 UTC
风速4节,风向
温度 -18°C
湿度 77%
气压 1031 hPa
能见度10公里或以上

METAR: UHWW 201730Z 36002MPS 9999 NSC M18/M21 Q1031 R07R/820255 NOSIG RMK QFE773

时间: 04:06 (18:06 UTC)

预报

该预报发布于1小时和6分钟前的17:00 UTC
预报有效从20日的 18点(UTC)到 21日的 18点(UTC)
风速6节,风向西北
能見度: 3500
轻雾
从 21日的 0300点(UTC)
风速6节,风向
能见度10公里或以上
多云层高于2000英尺

TAF: UHWW 201700Z 2018/2118 32003MPS 3500 BR NSC FM210300 18003MPS 9999 BKN020

超过4000个机场的气象观测和天气预报(METAR&TAF报告)。

可查询的气象台以黄色和红色小点在地图上表示。

将鼠标移到小点上方,可查看气象台名称。

然后点击查看天气观测和预报。

如需切换地图:点击带黑十字的绿色按钮放大地图;点击带横线的绿色按钮缩小地图;或者点击绿色箭头查看邻近地区的地图。


METAR-TAF: